MST,Max TemperatureF,Mean TemperatureF,Min TemperatureF,Max Dew PointF,MeanDew PointF,Min DewpointF,Max Humidity, Mean Humidity, Min Humidity, Max Sea Level PressureIn, Mean Sea Level PressureIn, Min Sea Level PressureIn, Max VisibilityMiles, Mean VisibilityMiles, Min VisibilityMiles, Max Wind SpeedMPH, Mean Wind SpeedMPH, Max Gust SpeedMPH,PrecipitationIn, CloudCover, Events, WindDirDegrees
2013-2-1,64,44,24,25,17,12,86,40,13,30.26,30.17,30.09,10,10,10,20,3,24,0.00,0,,202
2013-2-2,60,46,33,19,17,14,48,34,19,30.37,30.29,30.14,10,10,10,18,7,23,0.00,0,,313
2013-2-3,57,44,32,39,29,18,71,53,38,30.35,30.12,29.94,10,10,9,17,3,23,0.00,1,Rain,164
2013-2-4,64,48,33,37,20,14,71,37,16,30.00,29.97,29.90,10,10,10,22,6,29,0.00,0,,293
2013-2-5,68,50,32,23,15,10,56,32,13,30.03,29.98,29.94,10,10,10,13,1,,0.00,0,,270
2013-2-6,69,50,32,27,22,14,51,36,20,29.99,29.91,29.83,10,10,10,22,4,31,0.00,0,,235
2013-2-7,62,52,41,27,23,19,46,37,22,30.22,30.09,29.91,10,10,9,25,10,36,0.00,0,,360
2013-2-8,59,46,33,27,22,19,65,42,25,30.25,30.09,29.94,10,10,10,23,9,26,0.00,0,,98
2013-2-9,73,54,35,39,18,0,81,37,6,29.94,29.79,29.60,10,9,2,33,11,44,0.00,0,,232
2013-2-10,55,44,32,10,4,-2,41,22,11,30.00,29.92,29.85,10,10,10,21,10,28,0.00,0,,246
2013-2-11,60,44,28,39,20,3,81,40,22,30.06,29.94,29.87,10,10,4,25,7,36,0.02,1,Rain,101
2013-2-12,46,36,26,41,31,25,100,76,46,30.13,30.01,29.88,10,10,6,24,8,33,0.02,3,Rain,302
2013-2-13,55,39,23,28,14,3,93,48,12,30.13,30.04,29.96,10,10,10,14,3,20,0.00,0,,222
2013-2-14,62,45,28,32,17,10,81,39,14,30.20,30.04,29.97,10,10,10,23,7,26,0.00,0,,315
2013-2-15,44,35,26,32,21,14,87,61,37,30.40,30.32,30.20,10,10,10,22,11,31,0.00,1,,21
2013-2-16,62,42,23,25,11,3,74,38,11,30.38,30.23,30.08,10,10,10,16,3,21,0.00,0,,197
2013-2-17,68,47,26,12,6,0,43,22,7,30.08,29.90,29.78,10,10,10,22,5,30,0.00,0,,174
2013-2-18,62,48,33,18,11,5,48,27,11,30.12,29.98,29.80,10,10,10,29,9,38,0.00,0,,55
2013-2-19,53,42,30,41,28,14,100,65,24,30.17,30.07,29.97,10,8,4,23,8,29,0.07,4,Rain,136
2013-2-20,62,50,37,50,43,37,100,94,52,29.95,29.71,29.57,10,7,0,22,12,26,0.25,5,Fog-Rain-Thunderstorm,86
2013-2-21,57,44,32,41,24,18,100,53,23,29.91,29.78,29.65,10,10,10,23,12,33,0.00,0,,231
2013-2-22,53,40,26,32,27,18,100,70,24,30.04,29.96,29.90,10,8,0,13,5,18,0.00,2,Fog,100
2013-2-23,59,46,32,27,17,3,80,37,11,30.01,29.87,29.76,10,10,10,17,9,24,0.00,1,,211
2013-2-24,66,50,33,30,21,9,75,41,11,29.76,29.68,29.54,10,10,6,30,11,41,0.00,0,,249
2013-2-25,46,35,24,30,23,14,87,69,29,29.96,29.87,29.72,10,8,1,39,13,51,0.01,2,Rain-Snow,308
2013-2-26,64,44,23,23,11,0,86,42,8,30.02,29.86,29.71,10,10,10,28,7,36,0.00,0,,272
2013-2-27,48,37,26,25,20,10,80,54,22,30.29,30.21,30.03,10,10,10,28,10,32,0.00,0,,349
2013-2-28,53,38,23,25,14,7,86,46,15,30.33,30.25,30.21,10,10,10,15,2,17,0.00,0,,259